createdAt,value
2022-07-31T00:00:28.936Z,23.43
2022-07-31T00:02:55.762Z,23.52
2022-07-31T00:05:23.470Z,23.49
2022-07-31T00:07:50.260Z,23.34
2022-07-31T00:10:17.040Z,23.21
2022-07-31T00:12:43.540Z,23.08
2022-07-31T00:15:11.214Z,22.90
2022-07-31T00:17:39.353Z,22.81
2022-07-31T00:20:06.921Z,22.75
2022-07-31T00:22:33.376Z,22.77
2022-07-31T00:24:59.807Z,22.71
2022-07-31T00:27:26.292Z,22.62
2022-07-31T00:29:52.747Z,22.51
2022-07-31T00:32:19.279Z,22.32
2022-07-31T00:34:45.737Z,22.09
2022-07-31T00:37:12.200Z,22.07
2022-07-31T00:39:38.664Z,22.09
2022-07-31T00:42:05.829Z,22.13
2022-07-31T00:44:32.318Z,22.22
2022-07-31T00:46:58.855Z,22.16
2022-07-31T00:49:27.434Z,22.10
2022-07-31T00:52:04.496Z,22.06
2022-07-31T00:54:31.051Z,22.10
2022-07-31T00:56:57.518Z,22.19
2022-07-31T00:59:24.939Z,22.30
2022-07-31T01:01:51.749Z,22.45
2022-07-31T01:04:19.151Z,22.55
2022-07-31T01:06:46.976Z,22.54
2022-07-31T01:09:16.728Z,22.58
2022-07-31T01:12:01.485Z,22.56
2022-07-31T01:14:33.845Z,22.39
2022-07-31T01:17:02.168Z,22.42
2022-07-31T01:19:43.685Z,22.36
2022-07-31T01:22:41.070Z,22.31
2022-07-31T01:25:29.312Z,22.41
2022-07-31T01:28:33.980Z,22.39
2022-07-31T01:31:25.461Z,22.36
2022-07-31T01:34:02.596Z,22.50
2022-07-31T01:36:34.627Z,22.47
2022-07-31T01:39:02.417Z,22.43
2022-07-31T01:41:34.409Z,22.38
2022-07-31T01:44:03.339Z,22.34
2022-07-31T01:46:37.306Z,22.52
2022-07-31T01:49:09.708Z,22.60
2022-07-31T01:51:39.045Z,22.58
2022-07-31T01:54:06.182Z,22.49
2022-07-31T01:56:34.617Z,22.34
2022-07-31T01:59:02.308Z,22.32
2022-07-31T02:01:30.195Z,22.37
2022-07-31T02:04:00.654Z,22.42
2022-07-31T02:06:28.321Z,22.43
2022-07-31T02:08:56.325Z,22.44
2022-07-31T02:11:23.797Z,22.47
2022-07-31T02:13:53.375Z,22.48
2022-07-31T02:16:21.238Z,22.50
2022-07-31T02:18:51.117Z,22.41
2022-07-31T02:21:17.727Z,22.41
2022-07-31T02:23:44.316Z,22.32
2022-07-31T02:26:11.824Z,22.26
2022-07-31T02:28:41.927Z,22.20
2022-07-31T02:31:11.836Z,22.15
2022-07-31T02:33:41.737Z,22.18
2022-07-31T02:36:09.581Z,22.12
2022-07-31T02:38:37.349Z,22.13
2022-07-31T02:41:05.006Z,22.20
2022-07-31T02:43:33.268Z,22.19
2022-07-31T02:46:00.546Z,22.16
2022-07-31T02:48:27.442Z,22.13
2022-07-31T02:50:54.619Z,21.98
2022-07-31T02:53:21.765Z,21.79
2022-07-31T02:55:49.498Z,21.67
2022-07-31T02:58:16.138Z,21.54
2022-07-31T03:00:42.846Z,21.44
2022-07-31T03:03:09.370Z,21.41
2022-07-31T03:05:35.828Z,21.40
2022-07-31T03:08:02.320Z,21.41
2022-07-31T03:10:28.788Z,21.49
2022-07-31T03:12:56.016Z,21.46
2022-07-31T03:15:25.530Z,21.39
2022-07-31T03:17:53.639Z,21.27
2022-07-31T03:20:21.149Z,21.25
2022-07-31T03:22:48.873Z,21.22
2022-07-31T03:25:21.476Z,21.13
2022-07-31T03:27:55.621Z,21.19
2022-07-31T03:30:26.855Z,21.17
2022-07-31T03:32:57.031Z,21.23
2022-07-31T03:35:24.833Z,21.35
2022-07-31T03:37:51.855Z,21.34
2022-07-31T03:40:18.367Z,21.33
2022-07-31T03:42:46.117Z,21.14
2022-07-31T03:45:13.530Z,20.95
2022-07-31T03:47:40.320Z,20.90
2022-07-31T03:50:08.053Z,20.92
2022-07-31T03:52:35.468Z,20.88
2022-07-31T03:55:02.214Z,21.01
2022-07-31T03:57:31.296Z,20.98
2022-07-31T04:00:00.745Z,20.94
2022-07-31T04:02:28.390Z,20.95
2022-07-31T04:04:55.544Z,21.08
2022-07-31T04:07:22.029Z,21.12
2022-07-31T04:09:48.876Z,21.13
2022-07-31T04:12:15.814Z,21.07
2022-07-31T04:14:42.471Z,20.89
2022-07-31T04:17:09.337Z,20.88
2022-07-31T04:19:36.150Z,20.89
2022-07-31T04:22:03.095Z,20.96
2022-07-31T04:24:29.821Z,20.89
2022-07-31T04:26:56.969Z,20.84
2022-07-31T04:29:24.431Z,20.77
2022-07-31T04:31:50.973Z,20.77
2022-07-31T04:34:17.464Z,20.86
2022-07-31T04:36:43.946Z,20.77
2022-07-31T04:39:10.522Z,20.64
2022-07-31T04:41:37.020Z,20.65
2022-07-31T04:44:03.615Z,20.79
2022-07-31T04:46:30.098Z,20.87
2022-07-31T04:48:56.784Z,20.88
2022-07-31T04:51:24.303Z,20.86
2022-07-31T04:53:51.420Z,20.89
2022-07-31T04:56:37.355Z,20.98
2022-07-31T04:59:07.223Z,21.05
2022-07-31T05:01:34.207Z,21.20
2022-07-31T05:04:01.101Z,21.41
2022-07-31T05:06:45.081Z,21.60
2022-07-31T05:09:18.767Z,21.67
2022-07-31T05:11:47.203Z,21.69
2022-07-31T05:14:16.603Z,21.70
2022-07-31T05:16:44.077Z,21.62
2022-07-31T05:19:14.582Z,21.71
2022-07-31T05:21:53.011Z,21.80
2022-07-31T05:24:22.532Z,21.93
2022-07-31T05:26:59.209Z,22.16
2022-07-31T05:29:25.858Z,22.42
2022-07-31T05:31:59.950Z,22.40
2022-07-31T05:34:30.145Z,22.21
2022-07-31T05:36:58.586Z,22.14
2022-07-31T05:39:25.265Z,22.23
2022-07-31T05:41:52.755Z,22.45
2022-07-31T05:44:19.398Z,22.55
2022-07-31T05:46:45.882Z,22.53
2022-07-31T05:49:12.646Z,22.64
2022-07-31T05:51:42.397Z,22.73
2022-07-31T05:54:08.858Z,22.57
2022-07-31T05:56:35.404Z,22.50
2022-07-31T05:59:01.832Z,22.58
2022-07-31T06:01:28.437Z,22.53
2022-07-31T06:03:55.009Z,22.52
2022-07-31T06:06:21.445Z,22.55
2022-07-31T06:08:47.982Z,22.55
2022-07-31T06:11:14.454Z,22.52
2022-07-31T06:13:43.249Z,22.56
2022-07-31T06:16:13.949Z,22.57
2022-07-31T06:18:40.857Z,22.56
2022-07-31T06:21:07.351Z,22.57
2022-07-31T06:23:33.946Z,22.55
2022-07-31T06:26:00.814Z,22.61
2022-07-31T06:28:47.552Z,22.68
2022-07-31T06:31:19.345Z,22.68
2022-07-31T06:33:48.008Z,22.70
2022-07-31T06:36:14.814Z,22.81
2022-07-31T06:38:41.324Z,23.23
2022-07-31T06:41:07.850Z,23.57
2022-07-31T06:43:34.314Z,23.67
2022-07-31T06:46:00.760Z,23.53
2022-07-31T06:48:27.257Z,23.75
2022-07-31T06:51:14.561Z,23.82
2022-07-31T06:53:41.421Z,23.87
2022-07-31T06:56:07.877Z,23.92
2022-07-31T06:58:34.346Z,24.02
2022-07-31T07:01:00.817Z,24.12
2022-07-31T07:03:27.281Z,23.83
2022-07-31T07:05:53.746Z,23.87
2022-07-31T07:08:20.261Z,23.92
2022-07-31T07:10:46.762Z,24.03
2022-07-31T07:13:13.242Z,24.03
2022-07-31T07:15:39.723Z,24.00
2022-07-31T07:18:06.898Z,24.01
2022-07-31T07:20:33.839Z,24.00
2022-07-31T07:23:00.279Z,23.89
2022-07-31T07:25:26.758Z,23.95
2022-07-31T07:27:53.767Z,24.06
2022-07-31T07:30:20.361Z,24.25
2022-07-31T07:32:46.851Z,24.63
2022-07-31T07:35:13.651Z,24.78
2022-07-31T07:37:41.379Z,24.79
2022-07-31T07:40:09.049Z,24.86
2022-07-31T07:42:35.528Z,24.82
2022-07-31T07:45:02.242Z,24.96
2022-07-31T07:47:54.158Z,24.90
2022-07-31T07:50:20.275Z,24.99
2022-07-31T07:52:47.413Z,24.90
2022-07-31T07:55:13.937Z,24.85
2022-07-31T07:57:43.501Z,25.05
2022-07-31T08:00:11.487Z,25.08
2022-07-31T08:02:38.420Z,25.13
2022-07-31T08:05:06.937Z,25.15
2022-07-31T08:07:42.167Z,25.09
2022-07-31T08:10:10.104Z,25.03
2022-07-31T08:12:36.765Z,25.02
2022-07-31T08:15:04.410Z,25.03
2022-07-31T08:17:31.070Z,25.13
2022-07-31T08:19:57.679Z,25.22
2022-07-31T08:22:24.177Z,25.24
2022-07-31T08:24:50.637Z,25.27
2022-07-31T08:27:39.256Z,25.39
2022-07-31T08:30:07.875Z,25.48
2022-07-31T08:32:34.449Z,25.68
2022-07-31T08:35:00.943Z,25.79
2022-07-31T08:37:59.319Z,25.84
2022-07-31T08:40:14.005Z,25.88
2022-07-31T08:42:40.562Z,26.01
2022-07-31T08:45:08.326Z,26.24
2022-07-31T08:47:36.075Z,26.45
2022-07-31T08:50:05.528Z,26.56
2022-07-31T08:52:34.638Z,26.77
2022-07-31T08:55:06.674Z,26.91
2022-07-31T08:57:33.650Z,27.01
2022-07-31T09:00:00.115Z,27.05
2022-07-31T09:02:26.633Z,27.11
2022-07-31T09:04:53.188Z,27.28
2022-07-31T09:07:19.707Z,27.33
2022-07-31T09:09:51.472Z,27.52
2022-07-31T09:12:34.400Z,27.49
2022-07-31T09:15:01.417Z,27.58
2022-07-31T09:17:35.827Z,27.52
2022-07-31T09:20:04.155Z,27.50
2022-07-31T09:22:31.258Z,27.64
2022-07-31T09:25:11.868Z,27.77
2022-07-31T09:27:38.844Z,27.89
2022-07-31T09:30:06.254Z,28.17
2022-07-31T09:32:32.712Z,28.09
2022-07-31T09:35:13.136Z,28.02
2022-07-31T09:37:40.180Z,28.07
2022-07-31T09:40:08.228Z,28.08
2022-07-31T09:42:55.457Z,28.23
2022-07-31T09:45:23.686Z,28.24
2022-07-31T09:48:15.134Z,28.36
2022-07-31T09:50:59.796Z,28.42
2022-07-31T09:53:27.092Z,28.55
2022-07-31T09:55:56.085Z,28.67
2022-07-31T09:58:23.725Z,28.79
2022-07-31T10:00:52.619Z,28.84
2022-07-31T10:03:20.260Z,28.94
2022-07-31T10:05:47.913Z,28.89
2022-07-31T10:08:17.253Z,29.13
2022-07-31T10:10:45.090Z,29.29
2022-07-31T10:13:15.491Z,28.93
2022-07-31T10:15:42.650Z,29.09
2022-07-31T10:18:09.940Z,29.32
2022-07-31T10:20:37.691Z,29.53
2022-07-31T10:23:14.357Z,29.45
2022-07-31T10:25:53.263Z,29.46
2022-07-31T10:28:21.904Z,29.48
2022-07-31T10:30:49.292Z,29.52
2022-07-31T10:33:41.912Z,29.44
2022-07-31T10:36:11.266Z,29.47
2022-07-31T10:38:47.815Z,29.56
2022-07-31T10:41:41.982Z,29.58
2022-07-31T10:44:13.580Z,29.79
2022-07-31T10:46:40.195Z,29.97
2022-07-31T10:49:08.729Z,29.98
2022-07-31T10:51:46.457Z,30.00
2022-07-31T10:54:14.197Z,30.11
2022-07-31T10:56:45.205Z,30.10
2022-07-31T10:59:12.234Z,30.09
2022-07-31T11:01:55.035Z,29.99
2022-07-31T11:04:31.869Z,30.04
2022-07-31T11:06:59.122Z,29.98
2022-07-31T11:09:27.937Z,30.11
2022-07-31T11:11:55.450Z,30.32
2022-07-31T11:14:32.893Z,30.36
2022-07-31T11:16:59.493Z,30.35
2022-07-31T11:19:36.577Z,30.22
2022-07-31T11:22:32.224Z,30.42
2022-07-31T11:25:00.692Z,30.76
2022-07-31T11:27:34.141Z,30.80
2022-07-31T11:30:13.142Z,30.73
2022-07-31T11:32:41.007Z,30.71
2022-07-31T11:35:08.218Z,30.52
2022-07-31T11:37:46.222Z,30.62
2022-07-31T11:40:22.482Z,30.71
2022-07-31T11:43:23.229Z,30.92
2022-07-31T11:45:52.755Z,30.95
2022-07-31T11:48:21.171Z,30.93
2022-07-31T11:50:49.753Z,30.94
2022-07-31T11:53:17.620Z,30.81
2022-07-31T11:55:55.834Z,30.88
2022-07-31T11:58:24.280Z,31.00
2022-07-31T12:00:52.105Z,31.05
2022-07-31T12:03:21.193Z,31.08
2022-07-31T12:05:50.386Z,30.89
2022-07-31T12:08:17.013Z,30.60
2022-07-31T12:10:43.956Z,30.71
2022-07-31T12:13:15.759Z,30.99
2022-07-31T12:16:00.698Z,31.14
2022-07-31T12:18:29.183Z,31.22
2022-07-31T12:20:59.815Z,31.33
2022-07-31T12:23:40.619Z,31.41
2022-07-31T12:26:10.635Z,31.34
2022-07-31T12:28:37.633Z,31.37
2022-07-31T12:31:04.582Z,31.28
2022-07-31T12:33:40.549Z,31.31
2022-07-31T12:36:18.602Z,31.34
2022-07-31T12:38:48.888Z,31.42
2022-07-31T12:41:16.288Z,31.44
2022-07-31T12:43:51.859Z,31.51
2022-07-31T12:46:36.295Z,31.49
2022-07-31T12:49:04.444Z,31.36
2022-07-31T12:51:45.181Z,31.21
2022-07-31T12:54:14.880Z,31.30
2022-07-31T12:56:42.308Z,31.51
2022-07-31T12:59:09.647Z,31.49
2022-07-31T13:01:36.853Z,31.25
2022-07-31T13:04:05.583Z,31.08
2022-07-31T13:06:34.863Z,31.29
2022-07-31T13:09:01.398Z,31.51
2022-07-31T13:11:46.427Z,31.53
2022-07-31T13:14:19.591Z,31.55
2022-07-31T13:16:47.321Z,31.48
2022-07-31T13:19:15.011Z,31.34
2022-07-31T13:21:49.274Z,31.29
2022-07-31T13:24:20.611Z,31.33
2022-07-31T13:26:48.397Z,31.44
2022-07-31T13:29:15.773Z,31.59
2022-07-31T13:47:15.202Z,31.46
2022-07-31T13:49:41.847Z,31.41
2022-07-31T13:52:08.556Z,31.31
2022-07-31T13:54:35.079Z,31.21
2022-07-31T13:57:01.671Z,31.09
2022-07-31T13:59:29.271Z,31.29
2022-07-31T14:02:13.503Z,31.32
2022-07-31T14:04:40.459Z,31.37
2022-07-31T14:07:08.150Z,31.40
2022-07-31T14:09:35.899Z,31.23
2022-07-31T14:12:03.633Z,31.17
2022-07-31T14:14:30.913Z,31.16
2022-07-31T14:16:57.456Z,31.21
2022-07-31T14:19:23.938Z,31.23
2022-07-31T14:21:56.909Z,31.40
2022-07-31T14:24:24.888Z,31.41
2022-07-31T14:26:51.627Z,31.37
2022-07-31T14:29:18.160Z,31.38
2022-07-31T14:31:44.622Z,31.36
2022-07-31T14:34:11.144Z,31.18
2022-07-31T14:36:37.828Z,31.20
2022-07-31T14:39:04.363Z,31.26
2022-07-31T14:41:30.875Z,31.34
2022-07-31T14:43:57.468Z,31.28
2022-07-31T14:46:23.970Z,31.34
2022-07-31T14:48:50.649Z,31.38
2022-07-31T14:51:18.581Z,31.53
2022-07-31T14:53:46.163Z,31.52
2022-07-31T14:56:12.777Z,31.45
2022-07-31T14:58:58.083Z,31.27
2022-07-31T15:01:30.769Z,31.30
2022-07-31T15:03:57.866Z,31.35
2022-07-31T15:06:40.035Z,31.28
2022-07-31T15:09:12.127Z,31.20
2022-07-31T15:12:00.038Z,31.32
2022-07-31T15:14:28.505Z,31.44
2022-07-31T15:16:54.959Z,31.49
2022-07-31T15:19:21.472Z,31.46
2022-07-31T15:22:11.242Z,31.42
2022-07-31T15:24:34.496Z,31.37
2022-07-31T15:27:01.022Z,31.50
2022-07-31T15:30:05.765Z,31.55
2022-07-31T15:32:14.097Z,31.54
2022-07-31T15:34:40.601Z,31.50
2022-07-31T15:37:07.661Z,31.55
2022-07-31T15:39:34.447Z,31.57
2022-07-31T15:42:01.988Z,31.58
2022-07-31T15:44:29.009Z,31.46
2022-07-31T15:46:55.670Z,31.50
2022-07-31T15:49:23.250Z,31.51
2022-07-31T15:51:49.781Z,31.55
2022-07-31T15:54:16.370Z,31.58
2022-07-31T15:56:42.938Z,31.52
2022-07-31T15:59:09.421Z,31.50
2022-07-31T16:01:37.573Z,31.49
2022-07-31T16:04:16.329Z,31.39
2022-07-31T16:06:49.084Z,31.31
2022-07-31T16:09:17.144Z,31.24
2022-07-31T16:12:03.509Z,31.24
2022-07-31T16:14:30.217Z,31.26
2022-07-31T16:16:57.516Z,31.30
2022-07-31T16:19:25.130Z,31.35
2022-07-31T16:21:53.057Z,31.38
2022-07-31T16:24:22.322Z,31.28
2022-07-31T16:26:49.794Z,31.21
2022-07-31T16:29:17.749Z,31.24
2022-07-31T16:32:04.331Z,31.26
2022-07-31T16:34:30.927Z,31.24
2022-07-31T16:36:57.562Z,31.26
2022-07-31T16:39:24.227Z,31.23
2022-07-31T16:41:54.248Z,31.18
2022-07-31T16:44:21.665Z,31.18
2022-07-31T16:46:52.734Z,31.16
2022-07-31T16:49:28.255Z,31.13
2022-07-31T16:52:01.874Z,31.08
2022-07-31T16:54:28.690Z,31.09
2022-07-31T16:56:55.267Z,31.13
2022-07-31T16:59:21.781Z,31.12
2022-07-31T17:01:59.232Z,31.14
2022-07-31T17:04:27.428Z,31.16
2022-07-31T17:06:54.687Z,31.15
2022-07-31T17:09:21.924Z,31.11
2022-07-31T17:11:50.868Z,31.04
2022-07-31T17:14:19.497Z,31.01
2022-07-31T17:16:48.806Z,31.01
2022-07-31T17:19:42.301Z,31.01
2022-07-31T17:22:07.861Z,31.02
2022-07-31T17:24:37.139Z,31.01
2022-07-31T17:27:06.914Z,30.99
2022-07-31T17:29:33.839Z,30.95
2022-07-31T17:32:00.415Z,30.92
2022-07-31T17:34:28.010Z,30.91
2022-07-31T17:36:54.790Z,30.90
2022-07-31T17:39:21.316Z,30.87
2022-07-31T17:41:47.915Z,30.84
2022-07-31T17:44:14.838Z,30.81
2022-07-31T17:46:43.886Z,30.80
2022-07-31T17:49:19.513Z,30.72
2022-07-31T17:51:57.663Z,30.67
2022-07-31T17:54:27.772Z,30.62
2022-07-31T17:56:54.553Z,30.58
2022-07-31T17:59:21.160Z,30.52
2022-07-31T18:01:51.768Z,30.49
2022-07-31T18:04:19.308Z,30.49
2022-07-31T18:06:45.791Z,30.47
2022-07-31T18:09:12.278Z,30.41
2022-07-31T18:11:38.761Z,30.35
2022-07-31T18:14:05.252Z,30.32
2022-07-31T18:16:31.848Z,30.29
2022-07-31T18:18:58.393Z,30.24
2022-07-31T18:21:24.911Z,30.17
2022-07-31T18:23:51.427Z,30.10
2022-07-31T18:26:17.897Z,30.06
2022-07-31T18:28:44.429Z,29.92
2022-07-31T18:31:30.780Z,29.53
2022-07-31T18:33:57.444Z,29.11
2022-07-31T18:36:23.955Z,28.88
2022-07-31T18:38:52.025Z,28.69
2022-07-31T18:41:19.008Z,28.47
2022-07-31T18:43:45.572Z,28.36
2022-07-31T18:46:12.139Z,28.30
2022-07-31T18:48:38.672Z,28.08
2022-07-31T18:51:05.763Z,27.81
2022-07-31T18:53:33.512Z,27.71
2022-07-31T18:56:00.021Z,27.54
2022-07-31T18:58:26.811Z,27.40
2022-07-31T19:00:55.101Z,27.43
2022-07-31T19:03:23.353Z,27.35
2022-07-31T19:05:52.211Z,27.18
2022-07-31T19:08:19.430Z,27.18
2022-07-31T19:10:45.984Z,27.27
2022-07-31T19:13:17.242Z,27.37
2022-07-31T19:15:47.472Z,27.34
2022-07-31T19:18:14.249Z,27.19
2022-07-31T19:20:59.921Z,27.17
2022-07-31T19:23:31.577Z,27.20
2022-07-31T19:26:03.507Z,27.20
2022-07-31T19:28:34.897Z,27.16
2022-07-31T19:31:01.906Z,27.09
2022-07-31T19:33:28.586Z,27.10
2022-07-31T19:36:00.710Z,27.04
2022-07-31T19:38:29.228Z,27.01
2022-07-31T19:40:55.789Z,26.97
2022-07-31T19:43:22.317Z,26.95
2022-07-31T19:46:01.946Z,26.98
2022-07-31T19:48:36.624Z,27.05
2022-07-31T19:51:03.733Z,27.01
2022-07-31T19:53:30.335Z,26.96
2022-07-31T19:55:57.393Z,26.96
2022-07-31T19:58:23.890Z,26.94
2022-07-31T20:00:50.521Z,27.00
2022-07-31T20:03:17.174Z,27.02
2022-07-31T20:05:43.723Z,27.00
2022-07-31T20:08:10.450Z,26.94
2022-07-31T20:10:37.228Z,26.98
2022-07-31T20:13:04.148Z,26.97
2022-07-31T20:15:51.490Z,26.92
2022-07-31T20:18:25.197Z,26.81
2022-07-31T20:21:08.557Z,26.62
2022-07-31T20:23:38.532Z,26.38
2022-07-31T20:26:06.766Z,26.25
2022-07-31T20:28:33.313Z,26.16
2022-07-31T20:30:59.870Z,26.12
2022-07-31T20:33:26.383Z,26.05
2022-07-31T20:35:53.060Z,26.11
2022-07-31T20:38:23.668Z,26.15
2022-07-31T20:40:53.548Z,26.16
2022-07-31T20:43:27.026Z,26.13
2022-07-31T20:45:57.264Z,26.12
2022-07-31T20:48:27.029Z,26.13
2022-07-31T20:50:53.575Z,26.16
2022-07-31T20:53:21.553Z,26.22
2022-07-31T20:55:49.928Z,26.16
2022-07-31T20:58:21.680Z,26.04
2022-07-31T21:00:49.623Z,25.97
2022-07-31T21:03:17.537Z,25.96
2022-07-31T21:05:45.216Z,26.00
2022-07-31T21:08:13.295Z,26.02
2022-07-31T21:10:39.885Z,26.05
2022-07-31T21:13:06.406Z,26.07
2022-07-31T21:15:42.218Z,26.01
2022-07-31T21:18:15.522Z,25.95
2022-07-31T21:20:51.550Z,26.07
2022-07-31T21:23:24.669Z,26.06
2022-07-31T21:25:55.997Z,25.76
2022-07-31T21:28:23.647Z,25.56
2022-07-31T21:30:50.605Z,25.50
2022-07-31T21:33:18.282Z,25.52
2022-07-31T21:35:45.813Z,25.47
2022-07-31T21:38:15.035Z,25.42
2022-07-31T21:40:41.925Z,25.40
2022-07-31T21:43:09.633Z,25.43
2022-07-31T21:45:50.809Z,25.42
2022-07-31T21:48:23.720Z,25.45
2022-07-31T21:50:51.023Z,25.37
2022-07-31T21:53:17.516Z,25.39
2022-07-31T21:55:44.106Z,25.43
2022-07-31T21:58:10.742Z,25.48
2022-07-31T22:00:37.647Z,25.42
2022-07-31T22:03:04.630Z,25.49
2022-07-31T22:05:50.251Z,25.46
2022-07-31T22:08:16.993Z,25.47
2022-07-31T22:10:43.755Z,25.37
2022-07-31T22:13:10.285Z,25.23
2022-07-31T22:15:52.762Z,25.16
2022-07-31T22:18:26.409Z,25.15
2022-07-31T22:20:53.574Z,25.18
2022-07-31T22:23:20.392Z,25.17
2022-07-31T22:25:49.170Z,25.06
2022-07-31T22:28:18.889Z,25.05
2022-07-31T22:30:45.799Z,25.08
2022-07-31T22:33:12.656Z,25.10
2022-07-31T22:35:40.731Z,25.14
2022-07-31T22:38:08.528Z,25.22
2022-07-31T22:40:35.290Z,25.01
2022-07-31T22:43:02.646Z,24.80
2022-07-31T22:45:30.208Z,24.65
2022-07-31T22:47:57.558Z,24.49
2022-07-31T22:50:24.176Z,24.42
2022-07-31T22:52:50.780Z,24.47
2022-07-31T22:55:17.413Z,24.50
2022-07-31T22:57:44.906Z,24.53
2022-07-31T23:00:13.919Z,24.51
2022-07-31T23:02:42.151Z,24.38
2022-07-31T23:05:09.049Z,24.49
2022-07-31T23:07:35.572Z,24.50
2022-07-31T23:10:02.235Z,24.52
2022-07-31T23:12:29.541Z,24.40
2022-07-31T23:14:56.363Z,24.21
2022-07-31T23:17:23.558Z,24.25
2022-07-31T23:19:54.166Z,24.21
2022-07-31T23:22:30.883Z,24.00
2022-07-31T23:25:00.344Z,23.92
2022-07-31T23:27:26.886Z,23.87
2022-07-31T23:29:53.514Z,23.84
2022-07-31T23:32:20.013Z,23.90
2022-07-31T23:34:46.503Z,23.84
2022-07-31T23:37:13.070Z,23.94
2022-07-31T23:39:40.056Z,24.07
2022-07-31T23:42:25.376Z,24.11
2022-07-31T23:44:51.922Z,24.18
2022-07-31T23:47:19.358Z,24.17
2022-07-31T23:49:46.459Z,24.27
2022-07-31T23:52:13.076Z,24.20
2022-07-31T23:54:39.657Z,24.14
2022-07-31T23:57:06.179Z,24.04
2022-07-31T23:59:32.716Z,23.86
